ANZ416 NZAA-NZCH
Flight info
| Callsign | ANZ416 |
|---|---|
| Flight time | 1h 5m |
| Altitude | 36000 |
| Route | IGBAT H384 NP H252 NS Y288 IPRAK |
| Aircraft | A320/M-SDE3FGHIRWY/LB1 |
Departure
| Time | 2026-05-04 23:16 |
|---|---|
| Airport | Auckland International Airport (NZAA) |
Arrival
| Time | 2026-05-05 00:21 |
|---|---|
| Airport | Christchurch International Airport (NZCH) |
| Time | Latitude | Longitude | Altitude | Speed | Heading |
|---|---|---|---|---|---|
| 2026-05-04 22:36 | -37.00716 | 174.79099 | 36 ft | 0 kts | 340° |
| 2026-05-04 23:05 | -37.00718 | 174.79100 | 36 ft | 0 kts | 340° |
| 2026-05-04 23:05 | -37.00722 | 174.79102 | 36 ft | 0 kts | 340° |
| 2026-05-04 23:06 | -37.00728 | 174.79105 | 36 ft | 0 kts | 340° |
| 2026-05-04 23:06 | -37.00735 | 174.79108 | 36 ft | 1 kts | 340° |
| 2026-05-04 23:06 | -37.00743 | 174.79111 | 36 ft | 1 kts | 341° |
| 2026-05-04 23:06 | -37.00746 | 174.79112 | 36 ft | 0 kts | 341° |
| 2026-05-04 23:07 | -37.00750 | 174.79114 | 36 ft | 2 kts | 339° |
| 2026-05-04 23:07 | -37.00762 | 174.79123 | 35 ft | 2 kts | 312° |
| 2026-05-04 23:08 | -37.00771 | 174.79138 | 35 ft | 2 kts | 291° |
| 2026-05-04 23:08 | -37.00774 | 174.79156 | 35 ft | 2 kts | 271° |
| 2026-05-04 23:08 | -37.00772 | 174.79176 | 34 ft | 2 kts | 250° |
| 2026-05-04 23:08 | -37.00770 | 174.79184 | 34 ft | 0 kts | 246° |
| 2026-05-04 23:11 | -37.00770 | 174.79182 | 34 ft | 0 kts | 246° |
| 2026-05-04 23:11 | -37.00789 | 174.79134 | 35 ft | 8 kts | 234° |
| 2026-05-04 23:11 | -37.00856 | 174.79109 | 32 ft | 12 kts | 196° |
| 2026-05-04 23:12 | -37.00908 | 174.79010 | 29 ft | 15 kts | 250° |
| 2026-05-04 23:12 | -37.00948 | 174.78868 | 27 ft | 18 kts | 250° |
| 2026-05-04 23:12 | -37.00991 | 174.78711 | 25 ft | 20 kts | 251° |
| 2026-05-04 23:12 | -37.01038 | 174.78532 | 20 ft | 22 kts | 251° |
| 2026-05-04 23:13 | -37.01091 | 174.78340 | 19 ft | 23 kts | 250° |
| 2026-05-04 23:13 | -37.01140 | 174.78166 | 27 ft | 19 kts | 250° |
| 2026-05-04 23:13 | -37.01185 | 174.78001 | 29 ft | 24 kts | 251° |
| 2026-05-04 23:13 | -37.01252 | 174.77760 | 26 ft | 34 kts | 250° |
| 2026-05-04 23:14 | -37.01332 | 174.77472 | 29 ft | 34 kts | 250° |
| 2026-05-04 23:14 | -37.01403 | 174.77203 | 26 ft | 23 kts | 251° |
| 2026-05-04 23:14 | -37.01494 | 174.77104 | 26 ft | 18 kts | 192° |
| 2026-05-04 23:14 | -37.01612 | 174.77101 | 25 ft | 17 kts | 115° |
| 2026-05-04 23:15 | -37.01612 | 174.77151 | 25 ft | 0 kts | 73° |
| 2026-05-04 23:15 | -37.01580 | 174.77269 | 26 ft | 50 kts | 71° |
| 2026-05-04 23:16 | -37.01373 | 174.78032 | 33 ft | 130 kts | 71° |
| 2026-05-04 23:16 | -37.01033 | 174.79257 | 479 ft | 157 kts | 70° |
| 2026-05-04 23:16 | -37.00672 | 174.80547 | 1288 ft | 162 kts | 69° |
| 2026-05-04 23:16 | -37.00345 | 174.81860 | 2169 ft | 169 kts | 84° |
| 2026-05-04 23:17 | -37.00734 | 174.83252 | 3027 ft | 185 kts | 127° |
| 2026-05-04 23:17 | -37.01890 | 174.84029 | 3852 ft | 204 kts | 167° |
| 2026-05-04 23:17 | -37.03331 | 174.83897 | 4488 ft | 216 kts | 197° |
| 2026-05-04 23:17 | -37.04770 | 174.83064 | 4924 ft | 238 kts | 207° |
| 2026-05-04 23:18 | -37.06343 | 174.82437 | 5632 ft | 243 kts | 177° |
| 2026-05-04 23:18 | -37.07931 | 174.82947 | 6473 ft | 237 kts | 143° |
| 2026-05-04 23:18 | -37.09207 | 174.84210 | 7139 ft | 245 kts | 139° |
| 2026-05-04 23:18 | -37.10807 | 174.85158 | 7609 ft | 269 kts | 169° |
| 2026-05-04 23:19 | -37.12719 | 174.84932 | 8088 ft | 290 kts | 201° |
| 2026-05-04 23:19 | -37.14426 | 174.83551 | 8775 ft | 298 kts | 220° |
| 2026-05-04 23:19 | -37.16082 | 174.81959 | 9583 ft | 302 kts | 214° |
| 2026-05-04 23:19 | -37.17873 | 174.80614 | 10349 ft | 306 kts | 207° |
| 2026-05-04 23:20 | -37.19841 | 174.79440 | 10830 ft | 321 kts | 202° |
| 2026-05-04 23:20 | -37.21965 | 174.78378 | 11194 ft | 339 kts | 200° |
| 2026-05-04 23:20 | -37.24255 | 174.77353 | 11514 ft | 357 kts | 198° |
| 2026-05-04 23:20 | -37.26641 | 174.76343 | 11918 ft | 370 kts | 198° |
| 2026-05-04 23:21 | -37.29108 | 174.75328 | 12576 ft | 374 kts | 198° |
| 2026-05-04 23:21 | -37.31591 | 174.74316 | 13290 ft | 376 kts | 198° |
| 2026-05-04 23:21 | -37.34079 | 174.73306 | 13947 ft | 380 kts | 198° |
| 2026-05-04 23:21 | -37.36593 | 174.72287 | 14564 ft | 384 kts | 198° |
| 2026-05-04 23:22 | -37.39152 | 174.71248 | 15177 ft | 387 kts | 198° |
| 2026-05-04 23:22 | -37.41740 | 174.70197 | 15780 ft | 391 kts | 198° |
| 2026-05-04 23:22 | -37.44311 | 174.69150 | 16362 ft | 395 kts | 198° |
| 2026-05-04 23:22 | -37.46941 | 174.68080 | 16924 ft | 398 kts | 198° |
| 2026-05-04 23:23 | -37.49594 | 174.66998 | 17479 ft | 402 kts | 198° |
| 2026-05-04 23:23 | -37.52252 | 174.65916 | 18027 ft | 405 kts | 198° |
| 2026-05-04 23:23 | -37.54940 | 174.64821 | 18559 ft | 408 kts | 198° |
| 2026-05-04 23:23 | -37.57665 | 174.63779 | 19089 ft | 411 kts | 195° |
| 2026-05-04 23:24 | -37.60426 | 174.62880 | 19611 ft | 414 kts | 193° |
| 2026-05-04 23:24 | -37.63227 | 174.62010 | 20118 ft | 417 kts | 193° |
| 2026-05-04 23:24 | -37.66061 | 174.61136 | 20625 ft | 419 kts | 193° |
| 2026-05-04 23:24 | -37.68893 | 174.60260 | 21122 ft | 422 kts | 193° |
| 2026-05-04 23:25 | -37.71768 | 174.59367 | 21604 ft | 425 kts | 193° |
| 2026-05-04 23:25 | -37.74623 | 174.58481 | 22071 ft | 427 kts | 193° |
| 2026-05-04 23:25 | -37.77502 | 174.57585 | 22528 ft | 429 kts | 193° |
| 2026-05-04 23:25 | -37.80410 | 174.56679 | 22972 ft | 432 kts | 194° |
| 2026-05-04 23:26 | -37.83358 | 174.55757 | 23425 ft | 434 kts | 194° |
| 2026-05-04 23:26 | -37.86262 | 174.54848 | 23871 ft | 436 kts | 194° |
| 2026-05-04 23:26 | -37.89239 | 174.53915 | 24290 ft | 439 kts | 194° |
| 2026-05-04 23:26 | -37.92178 | 174.52992 | 24690 ft | 441 kts | 194° |
| 2026-05-04 23:27 | -37.95181 | 174.52049 | 25093 ft | 444 kts | 194° |
| 2026-05-04 23:27 | -37.98168 | 174.51112 | 25477 ft | 446 kts | 194° |
| 2026-05-04 23:27 | -38.01202 | 174.50162 | 25846 ft | 449 kts | 194° |
| 2026-05-04 23:27 | -38.04243 | 174.49210 | 26205 ft | 451 kts | 194° |
| 2026-05-04 23:28 | -38.07265 | 174.48262 | 26547 ft | 454 kts | 194° |
| 2026-05-04 23:28 | -38.10353 | 174.47290 | 26903 ft | 456 kts | 194° |
| 2026-05-04 23:28 | -38.13455 | 174.46315 | 27250 ft | 459 kts | 194° |
| 2026-05-04 23:28 | -38.16545 | 174.45338 | 27579 ft | 461 kts | 194° |
| 2026-05-04 23:29 | -38.19636 | 174.44362 | 27906 ft | 463 kts | 194° |
| 2026-05-04 23:29 | -38.22778 | 174.43370 | 28237 ft | 465 kts | 194° |
| 2026-05-04 23:29 | -38.25941 | 174.42372 | 28556 ft | 467 kts | 194° |
| 2026-05-04 23:29 | -38.29089 | 174.41374 | 28851 ft | 469 kts | 194° |
| 2026-05-04 23:30 | -38.32252 | 174.40372 | 29149 ft | 471 kts | 194° |
| 2026-05-04 23:30 | -38.35413 | 174.39369 | 29427 ft | 472 kts | 194° |
| 2026-05-04 23:30 | -38.38636 | 174.38347 | 29700 ft | 474 kts | 194° |
| 2026-05-04 23:30 | -38.41848 | 174.37326 | 29951 ft | 476 kts | 194° |
| 2026-05-04 23:31 | -38.45047 | 174.36310 | 30276 ft | 476 kts | 194° |
| 2026-05-04 23:31 | -38.48241 | 174.35292 | 30621 ft | 474 kts | 194° |
| 2026-05-04 23:31 | -38.51447 | 174.34270 | 30981 ft | 472 kts | 195° |
| 2026-05-04 23:31 | -38.54613 | 174.33258 | 31316 ft | 471 kts | 195° |
| 2026-05-04 23:32 | -38.57787 | 174.32243 | 31664 ft | 469 kts | 194° |
| 2026-05-04 23:32 | -38.60914 | 174.31244 | 32001 ft | 467 kts | 194° |
| 2026-05-04 23:32 | -38.64075 | 174.30232 | 32343 ft | 465 kts | 194° |
| 2026-05-04 23:32 | -38.67205 | 174.29230 | 32696 ft | 463 kts | 194° |
| 2026-05-04 23:33 | -38.70324 | 174.28232 | 33034 ft | 461 kts | 194° |
| 2026-05-04 23:33 | -38.73387 | 174.27249 | 33342 ft | 459 kts | 194° |
| 2026-05-04 23:33 | -38.76516 | 174.26245 | 33670 ft | 458 kts | 194° |
| 2026-05-04 23:33 | -38.79590 | 174.25258 | 33979 ft | 456 kts | 194° |
| 2026-05-04 23:34 | -38.82656 | 174.24272 | 34285 ft | 454 kts | 194° |
| 2026-05-04 23:34 | -38.85703 | 174.23292 | 34562 ft | 453 kts | 194° |
| 2026-05-04 23:34 | -38.88748 | 174.22311 | 34816 ft | 453 kts | 194° |
| 2026-05-04 23:34 | -38.91811 | 174.21323 | 35069 ft | 452 kts | 194° |
| 2026-05-04 23:35 | -38.94827 | 174.20349 | 35307 ft | 452 kts | 194° |
| 2026-05-04 23:35 | -38.97892 | 174.19359 | 35551 ft | 451 kts | 194° |
| 2026-05-04 23:35 | -39.00899 | 174.18347 | 35794 ft | 450 kts | 196° |
| 2026-05-04 23:35 | -39.03883 | 174.17189 | 36068 ft | 449 kts | 198° |
| 2026-05-04 23:36 | -39.06871 | 174.15976 | 36365 ft | 448 kts | 198° |
| 2026-05-04 23:36 | -39.09857 | 174.14751 | 36495 ft | 449 kts | 198° |
| 2026-05-04 23:36 | -39.15806 | 174.12306 | 36493 ft | 450 kts | 198° |
| 2026-05-04 23:37 | -39.21728 | 174.09874 | 36484 ft | 450 kts | 198° |
| 2026-05-04 23:37 | -39.27721 | 174.07414 | 36474 ft | 450 kts | 198° |
| 2026-05-04 23:38 | -39.33683 | 174.04964 | 36477 ft | 450 kts | 198° |
| 2026-05-04 23:38 | -39.39637 | 174.02512 | 36478 ft | 449 kts | 198° |
| 2026-05-04 23:39 | -39.45533 | 174.00076 | 36776 ft | 448 kts | 198° |
| 2026-05-04 23:39 | -39.48510 | 173.98846 | 36610 ft | 447 kts | 197° |
| 2026-05-04 23:39 | -39.51465 | 173.97629 | 36538 ft | 447 kts | 197° |
| 2026-05-04 23:40 | -39.57410 | 173.95175 | 36503 ft | 447 kts | 197° |
| 2026-05-04 23:40 | -39.63324 | 173.92729 | 36499 ft | 447 kts | 197° |
| 2026-05-04 23:41 | -39.69251 | 173.90269 | 36504 ft | 447 kts | 197° |
| 2026-05-04 23:41 | -39.75140 | 173.87819 | 36503 ft | 446 kts | 197° |
| 2026-05-04 23:42 | -39.81032 | 173.85362 | 36509 ft | 446 kts | 197° |
| 2026-05-04 23:42 | -39.86936 | 173.82895 | 36509 ft | 446 kts | 197° |
| 2026-05-04 23:43 | -39.92818 | 173.80438 | 36514 ft | 446 kts | 197° |
| 2026-05-04 23:43 | -39.98717 | 173.77971 | 36504 ft | 446 kts | 197° |
| 2026-05-04 23:44 | -40.04602 | 173.75503 | 36510 ft | 446 kts | 197° |
| 2026-05-04 23:44 | -40.10505 | 173.73022 | 36511 ft | 445 kts | 197° |
| 2026-05-04 23:45 | -40.16419 | 173.70532 | 36507 ft | 445 kts | 197° |
| 2026-05-04 23:45 | -40.22278 | 173.68062 | 36501 ft | 445 kts | 197° |
| 2026-05-04 23:46 | -40.28167 | 173.65570 | 36493 ft | 446 kts | 197° |
| 2026-05-04 23:46 | -40.34093 | 173.63060 | 36493 ft | 447 kts | 197° |
| 2026-05-04 23:47 | -40.39977 | 173.60571 | 36485 ft | 447 kts | 197° |
| 2026-05-04 23:47 | -40.45900 | 173.58058 | 36486 ft | 447 kts | 198° |
| 2026-05-04 23:48 | -40.51775 | 173.55557 | 36480 ft | 447 kts | 198° |
| 2026-05-04 23:48 | -40.57710 | 173.53024 | 36473 ft | 446 kts | 198° |
| 2026-05-04 23:49 | -40.63607 | 173.50503 | 36538 ft | 447 kts | 198° |
| 2026-05-04 23:49 | -40.66549 | 173.49245 | 36197 ft | 447 kts | 198° |
| 2026-05-04 23:49 | -40.69490 | 173.47987 | 36698 ft | 448 kts | 198° |
| 2026-05-04 23:50 | -40.72469 | 173.46712 | 36379 ft | 448 kts | 198° |
| 2026-05-04 23:50 | -40.75403 | 173.45454 | 36438 ft | 448 kts | 198° |
| 2026-05-04 23:50 | -40.81346 | 173.42900 | 36473 ft | 449 kts | 198° |
| 2026-05-04 23:51 | -40.87265 | 173.40358 | 36472 ft | 448 kts | 198° |
| 2026-05-04 23:51 | -40.93186 | 173.37810 | 36470 ft | 448 kts | 198° |
| 2026-05-04 23:52 | -40.99119 | 173.35249 | 36474 ft | 447 kts | 198° |
| 2026-05-04 23:52 | -41.05020 | 173.32697 | 36469 ft | 447 kts | 198° |
| 2026-05-04 23:53 | -41.10950 | 173.30124 | 36459 ft | 447 kts | 198° |
| 2026-05-04 23:53 | -41.16832 | 173.27567 | 36461 ft | 447 kts | 198° |
| 2026-05-04 23:54 | -41.22740 | 173.24991 | 36440 ft | 447 kts | 198° |
| 2026-05-04 23:54 | -41.28664 | 173.22406 | 36436 ft | 447 kts | 198° |
| 2026-05-04 23:55 | -41.34589 | 173.20029 | 36436 ft | 447 kts | 196° |
| 2026-05-04 23:56 | -41.43566 | 173.16609 | 36436 ft | 446 kts | 196° |
| 2026-05-04 23:56 | -41.46520 | 173.15480 | 36647 ft | 445 kts | 196° |
| 2026-05-04 23:56 | -41.49489 | 173.14342 | 36524 ft | 444 kts | 196° |
| 2026-05-04 23:57 | -41.55417 | 173.12062 | 36463 ft | 443 kts | 196° |
| 2026-05-04 23:57 | -41.61312 | 173.09788 | 36447 ft | 443 kts | 196° |
| 2026-05-04 23:58 | -41.67242 | 173.07498 | 36447 ft | 443 kts | 196° |
| 2026-05-04 23:58 | -41.73127 | 173.05220 | 36448 ft | 444 kts | 196° |
| 2026-05-04 23:59 | -41.79065 | 173.02918 | 36455 ft | 443 kts | 196° |
| 2026-05-04 23:59 | -41.84961 | 173.00626 | 36461 ft | 442 kts | 196° |
| 2026-05-05 00:00 | -41.90852 | 172.98334 | 36477 ft | 441 kts | 196° |
| 2026-05-05 00:00 | -41.96745 | 172.96033 | 36483 ft | 441 kts | 196° |
| 2026-05-05 00:01 | -42.02638 | 172.93729 | 36490 ft | 442 kts | 196° |
| 2026-05-05 00:01 | -42.08504 | 172.91431 | 36486 ft | 442 kts | 196° |
| 2026-05-05 00:02 | -42.14439 | 172.89104 | 36479 ft | 442 kts | 196° |
| 2026-05-05 00:02 | -42.20296 | 172.86801 | 36217 ft | 442 kts | 196° |
| 2026-05-05 00:02 | -42.23257 | 172.85637 | 35962 ft | 442 kts | 196° |
| 2026-05-05 00:03 | -42.26212 | 172.84471 | 35703 ft | 441 kts | 197° |
| 2026-05-05 00:03 | -42.29126 | 172.83322 | 35399 ft | 438 kts | 197° |
| 2026-05-05 00:03 | -42.32028 | 172.82176 | 34600 ft | 434 kts | 197° |
| 2026-05-05 00:03 | -42.34897 | 172.81041 | 33142 ft | 439 kts | 196° |
| 2026-05-05 00:04 | -42.37817 | 172.79880 | 31367 ft | 447 kts | 196° |
| 2026-05-05 00:04 | -42.40774 | 172.78703 | 29523 ft | 453 kts | 195° |
| 2026-05-05 00:04 | -42.43788 | 172.77510 | 27812 ft | 453 kts | 195° |
| 2026-05-05 00:04 | -42.46735 | 172.76341 | 26610 ft | 442 kts | 195° |
| 2026-05-05 00:05 | -42.49636 | 172.75191 | 25383 ft | 433 kts | 195° |
| 2026-05-05 00:05 | -42.52500 | 172.74052 | 24044 ft | 428 kts | 195° |
| 2026-05-05 00:05 | -42.55286 | 172.72945 | 22730 ft | 423 kts | 195° |
| 2026-05-05 00:05 | -42.58076 | 172.71835 | 21459 ft | 417 kts | 196° |
| 2026-05-05 00:06 | -42.60828 | 172.70741 | 20245 ft | 411 kts | 196° |
| 2026-05-05 00:06 | -42.63520 | 172.69667 | 19067 ft | 406 kts | 196° |
| 2026-05-05 00:06 | -42.66215 | 172.68590 | 17894 ft | 400 kts | 197° |
| 2026-05-05 00:06 | -42.68844 | 172.67539 | 16748 ft | 395 kts | 197° |
| 2026-05-05 00:07 | -42.71427 | 172.66504 | 15838 ft | 384 kts | 197° |
| 2026-05-05 00:07 | -42.73938 | 172.65497 | 14846 ft | 378 kts | 197° |
| 2026-05-05 00:07 | -42.76441 | 172.64493 | 13635 ft | 377 kts | 198° |
| 2026-05-05 00:07 | -42.78917 | 172.63496 | 12609 ft | 370 kts | 198° |
| 2026-05-05 00:08 | -42.81359 | 172.62512 | 11766 ft | 366 kts | 198° |
| 2026-05-05 00:08 | -42.83783 | 172.61536 | 11223 ft | 364 kts | 198° |
| 2026-05-05 00:08 | -42.86218 | 172.60553 | 10952 ft | 363 kts | 198° |
| 2026-05-05 00:08 | -42.88630 | 172.59573 | 10704 ft | 362 kts | 198° |
| 2026-05-05 00:09 | -42.91014 | 172.58606 | 10412 ft | 355 kts | 198° |
| 2026-05-05 00:09 | -42.93376 | 172.57646 | 10097 ft | 349 kts | 198° |
| 2026-05-05 00:09 | -42.95664 | 172.56714 | 9823 ft | 341 kts | 198° |
| 2026-05-05 00:09 | -42.97897 | 172.55803 | 9679 ft | 330 kts | 198° |
| 2026-05-05 00:10 | -43.00052 | 172.54924 | 9546 ft | 319 kts | 198° |
| 2026-05-05 00:10 | -43.02162 | 172.54060 | 9370 ft | 310 kts | 198° |
| 2026-05-05 00:10 | -43.04186 | 172.53232 | 9220 ft | 302 kts | 198° |
| 2026-05-05 00:10 | -43.06162 | 172.52423 | 9081 ft | 294 kts | 198° |
| 2026-05-05 00:11 | -43.08098 | 172.51631 | 8942 ft | 286 kts | 198° |
| 2026-05-05 00:11 | -43.09990 | 172.50859 | 8753 ft | 279 kts | 198° |
| 2026-05-05 00:11 | -43.11809 | 172.50116 | 8619 ft | 271 kts | 198° |
| 2026-05-05 00:11 | -43.13601 | 172.49382 | 8465 ft | 264 kts | 198° |
| 2026-05-05 00:12 | -43.15324 | 172.48675 | 8327 ft | 256 kts | 198° |
| 2026-05-05 00:12 | -43.16998 | 172.47989 | 8182 ft | 249 kts | 198° |
| 2026-05-05 00:12 | -43.18656 | 172.47307 | 7991 ft | 244 kts | 198° |
| 2026-05-05 00:12 | -43.20256 | 172.46648 | 7743 ft | 242 kts | 198° |
| 2026-05-05 00:13 | -43.21865 | 172.45987 | 7485 ft | 241 kts | 198° |
| 2026-05-05 00:13 | -43.23469 | 172.45325 | 7232 ft | 240 kts | 198° |
| 2026-05-05 00:13 | -43.25076 | 172.44663 | 6956 ft | 239 kts | 198° |
| 2026-05-05 00:13 | -43.26658 | 172.44012 | 6695 ft | 238 kts | 198° |
| 2026-05-05 00:14 | -43.28239 | 172.43361 | 6430 ft | 238 kts | 198° |
| 2026-05-05 00:14 | -43.29816 | 172.42711 | 6183 ft | 237 kts | 198° |
| 2026-05-05 00:14 | -43.31385 | 172.42065 | 5939 ft | 235 kts | 198° |
| 2026-05-05 00:14 | -43.32946 | 172.41422 | 5676 ft | 234 kts | 198° |
| 2026-05-05 00:15 | -43.34504 | 172.40778 | 5434 ft | 233 kts | 198° |
| 2026-05-05 00:15 | -43.36066 | 172.40132 | 5213 ft | 232 kts | 198° |
| 2026-05-05 00:15 | -43.37602 | 172.39499 | 4948 ft | 231 kts | 198° |
| 2026-05-05 00:15 | -43.39133 | 172.38884 | 4774 ft | 227 kts | 193° |
| 2026-05-05 00:16 | -43.40665 | 172.38596 | 4645 ft | 222 kts | 181° |
| 2026-05-05 00:16 | -43.42169 | 172.38634 | 4620 ft | 207 kts | 177° |
| 2026-05-05 00:16 | -43.43578 | 172.38739 | 4495 ft | 197 kts | 176° |
| 2026-05-05 00:16 | -43.44923 | 172.38843 | 4338 ft | 189 kts | 177° |
| 2026-05-05 00:17 | -43.46216 | 172.38936 | 4194 ft | 182 kts | 177° |
| 2026-05-05 00:17 | -43.47438 | 172.39018 | 4045 ft | 169 kts | 177° |
| 2026-05-05 00:17 | -43.48587 | 172.39092 | 3779 ft | 162 kts | 177° |
| 2026-05-05 00:17 | -43.49705 | 172.39177 | 3455 ft | 159 kts | 173° |
| 2026-05-05 00:18 | -43.50774 | 172.39517 | 3118 ft | 158 kts | 158° |
| 2026-05-05 00:18 | -43.51734 | 172.40196 | 2929 ft | 154 kts | 143° |
| 2026-05-05 00:18 | -43.52541 | 172.41162 | 2945 ft | 155 kts | 129° |
| 2026-05-05 00:18 | -43.53154 | 172.42355 | 2909 ft | 149 kts | 115° |
| 2026-05-05 00:19 | -43.53531 | 172.43637 | 2680 ft | 140 kts | 102° |
| 2026-05-05 00:19 | -43.53685 | 172.44922 | 2373 ft | 134 kts | 90° |
| 2026-05-05 00:19 | -43.53632 | 172.46179 | 2026 ft | 131 kts | 76° |
| 2026-05-05 00:19 | -43.53395 | 172.47403 | 1733 ft | 131 kts | 69° |
| 2026-05-05 00:20 | -43.53052 | 172.48543 | 1486 ft | 131 kts | 60° |
| 2026-05-05 00:20 | -43.52479 | 172.49510 | 1195 ft | 131 kts | 27° |
| 2026-05-05 00:20 | -43.51689 | 172.50120 | 832 ft | 132 kts | 31° |
| 2026-05-05 00:20 | -43.50937 | 172.50850 | 512 ft | 130 kts | 40° |
| 2026-05-05 00:21 | -43.50248 | 172.51617 | 280 ft | 128 kts | 43° |
| 2026-05-05 00:21 | -43.49571 | 172.52425 | 148 ft | 126 kts | 40° |
| 2026-05-05 00:21 | -43.48998 | 172.53090 | 118 ft | 71 kts | 40° |
| 2026-05-05 00:21 | -43.48713 | 172.53424 | 113 ft | 44 kts | 40° |
| 2026-05-05 00:22 | -43.48524 | 172.53650 | 109 ft | 25 kts | 56° |
| 2026-05-05 00:22 | -43.48469 | 172.53851 | 109 ft | 12 kts | 76° |
| 2026-05-05 00:22 | -43.48474 | 172.53967 | 109 ft | 12 kts | 129° |
| 2026-05-05 00:22 | -43.48552 | 172.53943 | 110 ft | 13 kts | 217° |
| 2026-05-05 00:23 | -43.48626 | 172.53854 | 109 ft | 15 kts | 220° |
| 2026-05-05 00:23 | -43.48705 | 172.53761 | 109 ft | 12 kts | 220° |
| 2026-05-05 00:23 | -43.48770 | 172.53711 | 109 ft | 9 kts | 152° |
| 2026-05-05 00:23 | -43.48807 | 172.53764 | 109 ft | 4 kts | 130° |
| 2026-05-05 00:24 | -43.48831 | 172.53803 | 110 ft | 4 kts | 130° |
| 2026-05-05 00:24 | -43.48833 | 172.53807 | 110 ft | 0 kts | 130° |